sensor_id;sensor_type;location;lat;lon;timestamp;pressure;altitude;pressure_sealevel;temperature;humidity
39341;BME280;25059;52.132;21.062;2023-03-25T00:00:59;99207.53;;;9.32;100.00
39341;BME280;25059;52.132;21.062;2023-03-25T00:03:44;99199.50;;;9.35;100.00
39341;BME280;25059;52.132;21.062;2023-03-25T00:06:33;99196.03;;;9.35;100.00
39341;BME280;25059;52.132;21.062;2023-03-25T00:09:18;99193.22;;;9.22;100.00
39341;BME280;25059;52.132;21.062;2023-03-25T00:12:03;99183.84;;;9.01;100.00
39341;BME280;25059;52.132;21.062;2023-03-25T00:14:47;99190.53;;;9.06;100.00
39341;BME280;25059;52.132;21.062;2023-03-25T00:17:37;99177.75;;;9.00;100.00
39341;BME280;25059;52.132;21.062;2023-03-25T00:20:22;99188.22;;;9.00;100.00
39341;BME280;25059;52.132;21.062;2023-03-25T00:23:07;99190.94;;;8.99;100.00
39341;BME280;25059;52.132;21.062;2023-03-25T00:25:51;99201.25;;;9.02;100.00
39341;BME280;25059;52.132;21.062;2023-03-25T00:28:37;99189.16;;;8.99;100.00
39341;BME280;25059;52.132;21.062;2023-03-25T00:31:22;99177.22;;;8.94;100.00
39341;BME280;25059;52.132;21.062;2023-03-25T00:34:07;99192.09;;;8.93;100.00
39341;BME280;25059;52.132;21.062;2023-03-25T00:36:51;99183.47;;;8.91;100.00
39341;BME280;25059;52.132;21.062;2023-03-25T00:39:37;99186.38;;;9.02;100.00
39341;BME280;25059;52.132;21.062;2023-03-25T00:42:21;99193.00;;;9.10;100.00
39341;BME280;25059;52.132;21.062;2023-03-25T00:45:12;99196.63;;;9.07;100.00
39341;BME280;25059;52.132;21.062;2023-03-25T00:47:56;99183.00;;;9.00;100.00
39341;BME280;25059;52.132;21.062;2023-03-25T00:50:41;99186.47;;;9.01;100.00
39341;BME280;25059;52.132;21.062;2023-03-25T00:53:25;99188.91;;;9.04;100.00
39341;BME280;25059;52.132;21.062;2023-03-25T00:56:10;99203.81;;;9.03;100.00
39341;BME280;25059;52.132;21.062;2023-03-25T00:58:56;99192.84;;;8.95;100.00
39341;BME280;25059;52.132;21.062;2023-03-25T01:01:41;99194.72;;;8.93;100.00
39341;BME280;25059;52.132;21.062;2023-03-25T01:04:26;99189.94;;;8.84;100.00
39341;BME280;25059;52.132;21.062;2023-03-25T01:07:11;99202.13;;;8.85;100.00
39341;BME280;25059;52.132;21.062;2023-03-25T01:09:59;99188.47;;;8.79;100.00
39341;BME280;25059;52.132;21.062;2023-03-25T01:12:43;99187.09;;;8.71;100.00
39341;BME280;25059;52.132;21.062;2023-03-25T01:15:28;99167.34;;;8.64;100.00
39341;BME280;25059;52.132;21.062;2023-03-25T01:18:12;99194.19;;;8.69;100.00
39341;BME280;25059;52.132;21.062;2023-03-25T01:20:57;99193.56;;;8.64;100.00
39341;BME280;25059;52.132;21.062;2023-03-25T01:23:41;99190.22;;;8.44;100.00
39341;BME280;25059;52.132;21.062;2023-03-25T01:26:26;99195.19;;;8.31;100.00
39341;BME280;25059;52.132;21.062;2023-03-25T01:29:12;99193.00;;;8.40;100.00
39341;BME280;25059;52.132;21.062;2023-03-25T01:31:58;99192.56;;;8.31;100.00
39341;BME280;25059;52.132;21.062;2023-03-25T01:34:42;99176.44;;;8.21;100.00
39341;BME280;25059;52.132;21.062;2023-03-25T01:37:27;99175.38;;;8.25;100.00
39341;BME280;25059;52.132;21.062;2023-03-25T01:40:18;99162.72;;;8.16;100.00
39341;BME280;25059;52.132;21.062;2023-03-25T01:43:04;99172.75;;;8.25;100.00
39341;BME280;25059;52.132;21.062;2023-03-25T01:45:49;99181.91;;;8.17;100.00
39341;BME280;25059;52.132;21.062;2023-03-25T01:48:37;99183.13;;;8.09;100.00
39341;BME280;25059;52.132;21.062;2023-03-25T01:51:26;99185.25;;;8.01;100.00
39341;BME280;25059;52.132;21.062;2023-03-25T01:54:12;99178.47;;;7.97;100.00
39341;BME280;25059;52.132;21.062;2023-03-25T01:57:01;99182.84;;;7.97;100.00
39341;BME280;25059;52.132;21.062;2023-03-25T01:59:46;99184.81;;;7.92;100.00
39341;BME280;25059;52.132;21.062;2023-03-25T02:02:31;99187.38;;;7.93;100.00
39341;BME280;25059;52.132;21.062;2023-03-25T02:05:23;99188.50;;;7.88;100.00
39341;BME280;25059;52.132;21.062;2023-03-25T02:08:11;99190.91;;;7.73;100.00
39341;BME280;25059;52.132;21.062;2023-03-25T02:10:59;99205.69;;;7.74;100.00
39341;BME280;25059;52.132;21.062;2023-03-25T02:13:44;99197.00;;;7.74;100.00
39341;BME280;25059;52.132;21.062;2023-03-25T02:28:42;99179.16;;;7.44;100.00
39341;BME280;25059;52.132;21.062;2023-03-25T02:34:48;99170.41;;;7.45;100.00
39341;BME280;25059;52.132;21.062;2023-03-25T02:41:02;99180.69;;;7.30;100.00
39341;BME280;25059;52.132;21.062;2023-03-25T02:46:39;99197.28;;;7.29;100.00
39341;BME280;25059;52.132;21.062;2023-03-25T02:49:29;99196.66;;;7.24;100.00
39341;BME280;25059;52.132;21.062;2023-03-25T02:52:20;99198.00;;;7.32;100.00
39341;BME280;25059;52.132;21.062;2023-03-25T02:55:10;99190.56;;;7.23;100.00
39341;BME280;25059;52.132;21.062;2023-03-25T02:58:00;99190.84;;;7.17;100.00
39341;BME280;25059;52.132;21.062;2023-03-25T03:00:49;99187.31;;;7.18;100.00
39341;BME280;25059;52.132;21.062;2023-03-25T03:03:35;99185.03;;;7.10;100.00
39341;BME280;25059;52.132;21.062;2023-03-25T03:06:20;99191.31;;;7.06;100.00
39341;BME280;25059;52.132;21.062;2023-03-25T03:09:18;99192.09;;;7.08;100.00
39341;BME280;25059;52.132;21.062;2023-03-25T03:21:17;99204.91;;;6.94;100.00
39341;BME280;25059;52.132;21.062;2023-03-25T03:24:16;99204.06;;;6.94;100.00
39341;BME280;25059;52.132;21.062;2023-03-25T03:33:20;99202.88;;;6.80;100.00
39341;BME280;25059;52.132;21.062;2023-03-25T03:36:12;99200.31;;;6.79;100.00
39341;BME280;25059;52.132;21.062;2023-03-25T03:39:03;99206.47;;;6.78;100.00
39341;BME280;25059;52.132;21.062;2023-03-25T03:41:54;99190.97;;;6.73;100.00
39341;BME280;25059;52.132;21.062;2023-03-25T03:44:42;99197.06;;;6.74;100.00
39341;BME280;25059;52.132;21.062;2023-03-25T03:47:35;99185.31;;;6.64;100.00
39341;BME280;25059;52.132;21.062;2023-03-25T03:50:27;99182.94;;;6.58;100.00
39341;BME280;25059;52.132;21.062;2023-03-25T03:53:19;99195.09;;;6.59;100.00
39341;BME280;25059;52.132;21.062;2023-03-25T03:56:11;99202.91;;;6.59;100.00
39341;BME280;25059;52.132;21.062;2023-03-25T03:58:59;99205.47;;;6.60;100.00
39341;BME280;25059;52.132;21.062;2023-03-25T04:01:49;99202.25;;;6.54;100.00
39341;BME280;25059;52.132;21.062;2023-03-25T04:04:37;99207.16;;;6.61;100.00
39341;BME280;25059;52.132;21.062;2023-03-25T04:07:27;99209.97;;;6.57;100.00
39341;BME280;25059;52.132;21.062;2023-03-25T04:11:01;99213.50;;;6.56;100.00
39341;BME280;25059;52.132;21.062;2023-03-25T04:13:38;99215.97;;;6.59;100.00
39341;BME280;25059;52.132;21.062;2023-03-25T04:16:24;99221.50;;;6.51;100.00
39341;BME280;25059;52.132;21.062;2023-03-25T04:19:08;99222.16;;;6.56;100.00
39341;BME280;25059;52.132;21.062;2023-03-25T04:21:53;99216.94;;;6.56;100.00
39341;BME280;25059;52.132;21.062;2023-03-25T04:24:37;99216.16;;;6.54;100.00
39341;BME280;25059;52.132;21.062;2023-03-25T04:27:25;99223.16;;;6.54;100.00
39341;BME280;25059;52.132;21.062;2023-03-25T04:30:14;99229.16;;;6.56;100.00
39341;BME280;25059;52.132;21.062;2023-03-25T04:33:00;99231.81;;;6.54;100.00
39341;BME280;25059;52.132;21.062;2023-03-25T04:35:45;99232.50;;;6.59;100.00
39341;BME280;25059;52.132;21.062;2023-03-25T04:38:30;99229.44;;;6.70;100.00
39341;BME280;25059;52.132;21.062;2023-03-25T04:41:15;99237.28;;;6.70;100.00
39341;BME280;25059;52.132;21.062;2023-03-25T04:44:00;99230.28;;;6.70;100.00
39341;BME280;25059;52.132;21.062;2023-03-25T04:46:45;99224.94;;;6.73;100.00
39341;BME280;25059;52.132;21.062;2023-03-25T04:49:29;99217.88;;;6.75;100.00
39341;BME280;25059;52.132;21.062;2023-03-25T04:52:14;99218.56;;;6.80;100.00
39341;BME280;25059;52.132;21.062;2023-03-25T04:55:00;99220.31;;;6.80;100.00
39341;BME280;25059;52.132;21.062;2023-03-25T04:57:45;99215.03;;;6.82;100.00
39341;BME280;25059;52.132;21.062;2023-03-25T05:00:30;99222.78;;;6.83;100.00
39341;BME280;25059;52.132;21.062;2023-03-25T05:03:15;99230.19;;;6.94;100.00
39341;BME280;25059;52.132;21.062;2023-03-25T05:06:00;99232.66;;;6.97;100.00
39341;BME280;25059;52.132;21.062;2023-03-25T05:08:45;99227.50;;;6.95;100.00
39341;BME280;25059;52.132;21.062;2023-03-25T05:11:31;99230.78;;;7.00;100.00
39341;BME280;25059;52.132;21.062;2023-03-25T05:14:18;99245.41;;;7.04;100.00
39341;BME280;25059;52.132;21.062;2023-03-25T05:17:03;99244.34;;;7.08;100.00
39341;BME280;25059;52.132;21.062;2023-03-25T05:19:47;99241.81;;;7.07;100.00
39341;BME280;25059;52.132;21.062;2023-03-25T05:22:35;99239.25;;;7.05;100.00
39341;BME280;25059;52.132;21.062;2023-03-25T05:25:21;99232.94;;;7.11;100.00
39341;BME280;25059;52.132;21.062;2023-03-25T05:28:06;99246.38;;;7.22;100.00
39341;BME280;25059;52.132;21.062;2023-03-25T05:30:53;99239.19;;;7.27;100.00
39341;BME280;25059;52.132;21.062;2023-03-25T05:33:38;99245.78;;;7.36;100.00
39341;BME280;25059;52.132;21.062;2023-03-25T05:36:26;99234.34;;;7.38;100.00
39341;BME280;25059;52.132;21.062;2023-03-25T05:39:11;99244.00;;;7.57;100.00
39341;BME280;25059;52.132;21.062;2023-03-25T05:41:55;99248.88;;;7.64;100.00
39341;BME280;25059;52.132;21.062;2023-03-25T05:44:45;99257.56;;;7.65;100.00
39341;BME280;25059;52.132;21.062;2023-03-25T05:47:33;99248.53;;;7.72;100.00
39341;BME280;25059;52.132;21.062;2023-03-25T05:50:18;99256.69;;;7.85;100.00
39341;BME280;25059;52.132;21.062;2023-03-25T05:53:03;99235.19;;;7.78;100.00
39341;BME280;25059;52.132;21.062;2023-03-25T05:55:48;99258.03;;;7.93;100.00
39341;BME280;25059;52.132;21.062;2023-03-25T05:58:35;99249.75;;;7.84;100.00
39341;BME280;25059;52.132;21.062;2023-03-25T06:01:20;99266.81;;;7.92;100.00
39341;BME280;25059;52.132;21.062;2023-03-25T06:04:05;99256.97;;;7.97;100.00
39341;BME280;25059;52.132;21.062;2023-03-25T06:06:53;99255.00;;;8.02;100.00
39341;BME280;25059;52.132;21.062;2023-03-25T06:09:37;99243.53;;;8.05;100.00
39341;BME280;25059;52.132;21.062;2023-03-25T06:12:29;99260.38;;;8.18;100.00
39341;BME280;25059;52.132;21.062;2023-03-25T06:15:16;99254.63;;;8.29;100.00
39341;BME280;25059;52.132;21.062;2023-03-25T06:18:03;99255.00;;;8.40;100.00
39341;BME280;25059;52.132;21.062;2023-03-25T06:20:47;99246.31;;;8.57;100.00
39341;BME280;25059;52.132;21.062;2023-03-25T06:23:33;99246.94;;;8.62;100.00
39341;BME280;25059;52.132;21.062;2023-03-25T06:26:20;99232.41;;;8.73;100.00
39341;BME280;25059;52.132;21.062;2023-03-25T06:29:05;99222.94;;;8.88;100.00
39341;BME280;25059;52.132;21.062;2023-03-25T06:31:51;99238.28;;;8.96;100.00
39341;BME280;25059;52.132;21.062;2023-03-25T06:34:36;99232.09;;;8.97;100.00
39341;BME280;25059;52.132;21.062;2023-03-25T06:37:22;99225.63;;;9.04;100.00
39341;BME280;25059;52.132;21.062;2023-03-25T06:40:09;99239.56;;;9.22;100.00
39341;BME280;25059;52.132;21.062;2023-03-25T06:42:54;99243.56;;;9.46;100.00
39341;BME280;25059;52.132;21.062;2023-03-25T06:45:39;99248.25;;;9.39;100.00
39341;BME280;25059;52.132;21.062;2023-03-25T06:48:27;99257.53;;;9.29;100.00
39341;BME280;25059;52.132;21.062;2023-03-25T06:51:11;99245.66;;;9.22;100.00
39341;BME280;25059;52.132;21.062;2023-03-25T06:53:55;99248.59;;;9.16;100.00
39341;BME280;25059;52.132;21.062;2023-03-25T06:56:40;99250.59;;;9.28;100.00
39341;BME280;25059;52.132;21.062;2023-03-25T06:59:25;99255.34;;;9.55;100.00
39341;BME280;25059;52.132;21.062;2023-03-25T07:02:11;99247.59;;;9.69;100.00
39341;BME280;25059;52.132;21.062;2023-03-25T07:04:56;99240.31;;;9.74;100.00
39341;BME280;25059;52.132;21.062;2023-03-25T07:07:41;99244.34;;;9.97;100.00
39341;BME280;25059;52.132;21.062;2023-03-25T07:10:26;99236.38;;;9.98;100.00
39341;BME280;25059;52.132;21.062;2023-03-25T07:13:10;99224.94;;;9.99;100.00
39341;BME280;25059;52.132;21.062;2023-03-25T07:15:56;99237.84;;;10.20;100.00
39341;BME280;25059;52.132;21.062;2023-03-25T07:18:41;99234.63;;;10.46;100.00
39341;BME280;25059;52.132;21.062;2023-03-25T07:21:41;99218.59;;;10.51;100.00
39341;BME280;25059;52.132;21.062;2023-03-25T07:24:27;99211.41;;;10.39;100.00
39341;BME280;25059;52.132;21.062;2023-03-25T07:27:14;99221.16;;;10.21;100.00
39341;BME280;25059;52.132;21.062;2023-03-25T07:30:02;99212.78;;;10.30;100.00
39341;BME280;25059;52.132;21.062;2023-03-25T07:37:07;99224.38;;;10.42;100.00
39341;BME280;25059;52.132;21.062;2023-03-25T07:40:02;99235.13;;;10.53;100.00
39341;BME280;25059;52.132;21.062;2023-03-25T07:42:51;99224.09;;;10.92;100.00
39341;BME280;25059;52.132;21.062;2023-03-25T07:45:41;99221.13;;;11.12;100.00
39341;BME280;25059;52.132;21.062;2023-03-25T07:48:53;99181.31;;;11.18;100.00
39341;BME280;25059;52.132;21.062;2023-03-25T07:55:04;99194.50;;;11.47;100.00
39341;BME280;25059;52.132;21.062;2023-03-25T07:57:58;99207.28;;;11.95;100.00
39341;BME280;25059;52.132;21.062;2023-03-25T08:01:34;99151.38;;;12.05;100.00
39341;BME280;25059;52.132;21.062;2023-03-25T08:04:25;99197.31;;;12.27;100.00
39341;BME280;25059;52.132;21.062;2023-03-25T08:07:47;99202.19;;;11.50;100.00
39341;BME280;25059;52.132;21.062;2023-03-25T08:10:35;99190.31;;;11.14;100.00
39341;BME280;25059;52.132;21.062;2023-03-25T08:14:07;99187.72;;;11.28;100.00
39341;BME280;25059;52.132;21.062;2023-03-25T08:17:19;99210.41;;;11.01;100.00
39341;BME280;25059;52.132;21.062;2023-03-25T08:20:09;99201.13;;;11.10;100.00
39341;BME280;25059;52.132;21.062;2023-03-25T08:23:00;99165.81;;;11.14;100.00
39341;BME280;25059;52.132;21.062;2023-03-25T08:25:49;99147.25;;;10.87;100.00
39341;BME280;25059;52.132;21.062;2023-03-25T08:28:34;99207.81;;;11.29;100.00
39341;BME280;25059;52.132;21.062;2023-03-25T08:31:54;99179.16;;;11.53;100.00
39341;BME280;25059;52.132;21.062;2023-03-25T08:35:21;99191.38;;;11.40;100.00
39341;BME280;25059;52.132;21.062;2023-03-25T08:38:30;99221.75;;;11.60;100.00
39341;BME280;25059;52.132;21.062;2023-03-25T08:41:20;99208.78;;;11.57;100.00
39341;BME280;25059;52.132;21.062;2023-03-25T08:44:06;99197.00;;;11.77;100.00
39341;BME280;25059;52.132;21.062;2023-03-25T08:47:01;99217.81;;;11.81;100.00
39341;BME280;25059;52.132;21.062;2023-03-25T08:50:24;99211.22;;;11.88;100.00
39341;BME280;25059;52.132;21.062;2023-03-25T08:53:21;99213.59;;;11.79;100.00
39341;BME280;25059;52.132;21.062;2023-03-25T08:56:09;99209.16;;;11.93;100.00
39341;BME280;25059;52.132;21.062;2023-03-25T08:58:58;99201.97;;;12.10;100.00
39341;BME280;25059;52.132;21.062;2023-03-25T09:02:24;99145.50;;;12.14;100.00
39341;BME280;25059;52.132;21.062;2023-03-25T09:05:54;99204.72;;;12.62;100.00
39341;BME280;25059;52.132;21.062;2023-03-25T09:08:53;99208.22;;;12.63;100.00
39341;BME280;25059;52.132;21.062;2023-03-25T09:11:42;99179.16;;;12.50;100.00
39341;BME280;25059;52.132;21.062;2023-03-25T09:14:29;99194.66;;;12.81;100.00
39341;BME280;25059;52.132;21.062;2023-03-25T09:17:17;99183.38;;;12.92;100.00
39341;BME280;25059;52.132;21.062;2023-03-25T09:20:15;99176.47;;;13.16;100.00
39341;BME280;25059;52.132;21.062;2023-03-25T09:23:06;99150.28;;;13.26;100.00
39341;BME280;25059;52.132;21.062;2023-03-25T09:26:04;99183.03;;;13.49;100.00
39341;BME280;25059;52.132;21.062;2023-03-25T09:29:18;99177.63;;;13.63;100.00
39341;BME280;25059;52.132;21.062;2023-03-25T09:32:03;99178.94;;;13.94;100.00
39341;BME280;25059;52.132;21.062;2023-03-25T09:34:48;99162.53;;;14.02;100.00
39341;BME280;25059;52.132;21.062;2023-03-25T09:37:32;99169.41;;;14.28;100.00
39341;BME280;25059;52.132;21.062;2023-03-25T09:40:19;99176.63;;;14.50;100.00
39341;BME280;25059;52.132;21.062;2023-03-25T09:43:37;99162.63;;;15.07;100.00
39341;BME280;25059;52.132;21.062;2023-03-25T09:46:23;99163.16;;;15.45;100.00
39341;BME280;25059;52.132;21.062;2023-03-25T09:49:15;99164.25;;;15.88;100.00
39341;BME280;25059;52.132;21.062;2023-03-25T09:52:01;99147.84;;;16.48;100.00
39341;BME280;25059;52.132;21.062;2023-03-25T09:54:51;99144.81;;;17.05;100.00
39341;BME280;25059;52.132;21.062;2023-03-25T09:57:45;99143.13;;;16.84;100.00
39341;BME280;25059;52.132;21.062;2023-03-25T10:00:32;99154.13;;;16.47;100.00
39341;BME280;25059;52.132;21.062;2023-03-25T10:03:25;99153.91;;;15.51;100.00
39341;BME280;25059;52.132;21.062;2023-03-25T10:06:15;99155.81;;;15.27;100.00
39341;BME280;25059;52.132;21.062;2023-03-25T10:15:20;99150.19;;;16.30;100.00
39341;BME280;25059;52.132;21.062;2023-03-25T10:18:16;99151.25;;;16.39;100.00
39341;BME280;25059;52.132;21.062;2023-03-25T10:27:14;99136.78;;;18.56;89.81
39341;BME280;25059;52.132;21.062;2023-03-25T10:32:56;99125.56;;;18.53;92.45
39341;BME280;25059;52.132;21.062;2023-03-25T10:35:46;99134.09;;;19.04;78.53
39341;BME280;25059;52.132;21.062;2023-03-25T10:38:33;99132.16;;;18.78;79.70
39341;BME280;25059;52.132;21.062;2023-03-25T10:41:26;99120.13;;;19.77;76.98
39341;BME280;25059;52.132;21.062;2023-03-25T10:44:11;99119.78;;;21.40;68.17
39341;BME280;25059;52.132;21.062;2023-03-25T10:47:00;99108.56;;;22.12;60.07
39341;BME280;25059;52.132;21.062;2023-03-25T10:49:48;99131.84;;;22.28;57.45
39341;BME280;25059;52.132;21.062;2023-03-25T10:52:35;99123.88;;;22.61;53.68
39341;BME280;25059;52.132;21.062;2023-03-25T10:55:25;99123.88;;;21.94;53.23
39341;BME280;25059;52.132;21.062;2023-03-25T10:58:15;99116.38;;;21.30;54.61
39341;BME280;25059;52.132;21.062;2023-03-25T11:01:10;99114.41;;;22.08;54.38
39341;BME280;25059;52.132;21.062;2023-03-25T11:03:56;99110.09;;;21.81;53.40
39341;BME280;25059;52.132;21.062;2023-03-25T11:06:46;99095.22;;;22.37;53.86
39341;BME280;25059;52.132;21.062;2023-03-25T11:09:34;99112.06;;;22.13;53.24
39341;BME280;25059;52.132;21.062;2023-03-25T11:12:21;99105.97;;;20.39;58.93
39341;BME280;25059;52.132;21.062;2023-03-25T11:15:06;99105.75;;;19.87;58.59
39341;BME280;25059;52.132;21.062;2023-03-25T11:18:01;99103.59;;;18.70;62.67
39341;BME280;25059;52.132;21.062;2023-03-25T11:20:50;99107.19;;;17.31;68.19
39341;BME280;25059;52.132;21.062;2023-03-25T11:23:41;99094.81;;;16.37;77.02
39341;BME280;25059;52.132;21.062;2023-03-25T11:26:28;99104.72;;;16.03;84.92
39341;BME280;25059;52.132;21.062;2023-03-25T11:29:18;99088.88;;;15.69;87.76
39341;BME280;25059;52.132;21.062;2023-03-25T11:32:07;99088.16;;;15.67;89.70
39341;BME280;25059;52.132;21.062;2023-03-25T11:34:56;99093.91;;;15.83;89.67
39341;BME280;25059;52.132;21.062;2023-03-25T11:37:46;99083.81;;;16.21;88.60
39341;BME280;25059;52.132;21.062;2023-03-25T11:40:33;99073.28;;;17.84;78.34
39341;BME280;25059;52.132;21.062;2023-03-25T11:43:20;99071.91;;;17.99;75.87
39341;BME280;25059;52.132;21.062;2023-03-25T11:46:12;99059.34;;;17.61;76.62
39341;BME280;25059;52.132;21.062;2023-03-25T11:49:07;99077.22;;;17.50;77.08
39341;BME280;25059;52.132;21.062;2023-03-25T11:51:58;99076.47;;;16.45;79.44
39341;BME280;25059;52.132;21.062;2023-03-25T11:54:45;99069.66;;;15.99;86.02
39341;BME280;25059;52.132;21.062;2023-03-25T11:57:35;99061.78;;;15.55;89.08
39341;BME280;25059;52.132;21.062;2023-03-25T12:00:39;99071.78;;;15.73;87.74
39341;BME280;25059;52.132;21.062;2023-03-25T12:03:26;99065.72;;;15.82;89.03
39341;BME280;25059;52.132;21.062;2023-03-25T12:08:58;99060.47;;;15.60;91.82
39341;BME280;25059;52.132;21.062;2023-03-25T12:17:50;99064.81;;;15.16;100.00
39341;BME280;25059;52.132;21.062;2023-03-25T12:21:03;99063.91;;;14.71;100.00
39341;BME280;25059;52.132;21.062;2023-03-25T12:35:41;99049.16;;;14.91;100.00
39341;BME280;25059;52.132;21.062;2023-03-25T12:38:33;99047.72;;;14.98;100.00
39341;BME280;25059;52.132;21.062;2023-03-25T12:41:21;99038.22;;;15.29;94.30
39341;BME280;25059;52.132;21.062;2023-03-25T13:05:18;98974.94;;;19.07;74.08
39341;BME280;25059;52.132;21.062;2023-03-25T13:11:06;99014.75;;;18.52;76.31
39341;BME280;25059;52.132;21.062;2023-03-25T13:13:54;98994.97;;;17.08;80.80
39341;BME280;25059;52.132;21.062;2023-03-25T13:16:41;99009.34;;;16.12;87.63
39341;BME280;25059;52.132;21.062;2023-03-25T13:19:30;99017.88;;;15.30;98.72
39341;BME280;25059;52.132;21.062;2023-03-25T13:22:23;99011.03;;;14.94;100.00
39341;BME280;25059;52.132;21.062;2023-03-25T13:28:46;99073.03;;;11.94;100.00
39341;BME280;25059;52.132;21.062;2023-03-25T13:31:37;99093.00;;;9.33;100.00
39341;BME280;25059;52.132;21.062;2023-03-25T13:34:30;99089.84;;;10.05;100.00
39341;BME280;25059;52.132;21.062;2023-03-25T13:37:40;99078.25;;;15.80;100.00
39341;BME280;25059;52.132;21.062;2023-03-25T13:44:07;99051.91;;;12.86;100.00
39341;BME280;25059;52.132;21.062;2023-03-25T13:47:20;99049.81;;;13.16;100.00
39341;BME280;25059;52.132;21.062;2023-03-25T13:53:26;99030.63;;;13.75;100.00
39341;BME280;25059;52.132;21.062;2023-03-25T14:12:41;99004.31;;;19.24;100.00
39341;BME280;25059;52.132;21.062;2023-03-25T14:18:49;99014.50;;;17.37;100.00
39341;BME280;25059;52.132;21.062;2023-03-25T14:44:53;98999.91;;;22.91;100.00
39341;BME280;25059;52.132;21.062;2023-03-25T14:48:22;99000.47;;;22.21;100.00
39341;BME280;25059;52.132;21.062;2023-03-25T14:54:03;99015.75;;;17.33;100.00
39341;BME280;25059;52.132;21.062;2023-03-25T15:11:59;99108.72;;;12.12;100.00
39341;BME280;25059;52.132;21.062;2023-03-25T15:15:06;99077.81;;;11.60;100.00
39341;BME280;25059;52.132;21.062;2023-03-25T15:24:51;99108.78;;;11.00;100.00
39341;BME280;25059;52.132;21.062;2023-03-25T16:15:50;99034.00;;;11.04;100.00
39341;BME280;25059;52.132;21.062;2023-03-25T17:26:55;99132.53;;;9.93;100.00
39341;BME280;25059;52.132;21.062;2023-03-25T17:29:57;99102.31;;;9.70;100.00
39341;BME280;25059;52.132;21.062;2023-03-25T19:04:41;99151.16;;;10.04;100.00
39341;BME280;25059;52.132;21.062;2023-03-25T19:07:44;99150.31;;;9.88;100.00
39341;BME280;25059;52.132;21.062;2023-03-25T19:19:19;99052.56;;;9.53;100.00
39341;BME280;25059;52.132;21.062;2023-03-25T19:41:59;99117.00;;;9.25;100.00
39341;BME280;25059;52.132;21.062;2023-03-25T19:50:58;99096.72;;;9.29;100.00
39341;BME280;25059;52.132;21.062;2023-03-25T19:54:04;99121.19;;;9.45;100.00
39341;BME280;25059;52.132;21.062;2023-03-25T19:59:32;99082.31;;;9.20;100.00
39341;BME280;25059;52.132;21.062;2023-03-25T20:02:41;99103.56;;;9.31;100.00
39341;BME280;25059;52.132;21.062;2023-03-25T20:05:35;99045.16;;;8.96;100.00
39341;BME280;25059;52.132;21.062;2023-03-25T20:08:38;99098.81;;;9.22;100.00
39341;BME280;25059;52.132;21.062;2023-03-25T20:12:01;99118.13;;;9.37;100.00
39341;BME280;25059;52.132;21.062;2023-03-25T20:15:49;99085.22;;;8.98;100.00
39341;BME280;25059;52.132;21.062;2023-03-25T20:18:37;99063.06;;;8.88;100.00
39341;BME280;25059;52.132;21.062;2023-03-25T20:21:38;99114.09;;;9.14;100.00
39341;BME280;25059;52.132;21.062;2023-03-25T20:24:39;99058.34;;;8.95;100.00
39341;BME280;25059;52.132;21.062;2023-03-25T20:28:07;99122.28;;;9.08;100.00
39341;BME280;25059;52.132;21.062;2023-03-25T20:30:55;99069.88;;;8.75;100.00
39341;BME280;25059;52.132;21.062;2023-03-25T20:33:43;99121.97;;;9.14;100.00
39341;BME280;25059;52.132;21.062;2023-03-25T20:36:42;99125.69;;;9.10;100.00
39341;BME280;25059;52.132;21.062;2023-03-25T20:39:49;99120.34;;;9.12;100.00
39341;BME280;25059;52.132;21.062;2023-03-25T20:49:46;99092.16;;;8.66;100.00
39341;BME280;25059;52.132;21.062;2023-03-25T20:52:56;99122.25;;;8.92;100.00
39341;BME280;25059;52.132;21.062;2023-03-25T20:55:52;99062.19;;;8.55;100.00
39341;BME280;25059;52.132;21.062;2023-03-25T20:59:21;99121.44;;;8.74;100.00
39341;BME280;25059;52.132;21.062;2023-03-25T21:02:14;99121.50;;;8.56;100.00
39341;BME280;25059;52.132;21.062;2023-03-25T21:05:10;99128.22;;;8.61;100.00
39341;BME280;25059;52.132;21.062;2023-03-25T21:08:13;99120.66;;;8.55;100.00
39341;BME280;25059;52.132;21.062;2023-03-25T22:09:14;99105.94;;;8.35;100.00
39341;BME280;25059;52.132;21.062;2023-03-25T22:12:31;99089.72;;;8.10;100.00
39341;BME280;25059;52.132;21.062;2023-03-25T22:16:11;99101.22;;;8.25;100.00
39341;BME280;25059;52.132;21.062;2023-03-25T22:22:29;99104.41;;;8.49;100.00
39341;BME280;25059;52.132;21.062;2023-03-25T22:25:21;99067.59;;;8.34;100.00
39341;BME280;25059;52.132;21.062;2023-03-25T22:28:19;99094.00;;;8.64;100.00
39341;BME280;25059;52.132;21.062;2023-03-25T22:31:16;99107.88;;;8.66;100.00
39341;BME280;25059;52.132;21.062;2023-03-25T22:34:12;99101.75;;;8.83;100.00
39341;BME280;25059;52.132;21.062;2023-03-25T22:37:02;99084.81;;;8.73;100.00
39341;BME280;25059;52.132;21.062;2023-03-25T22:40:04;99100.38;;;8.76;100.00
39341;BME280;25059;52.132;21.062;2023-03-25T22:43:19;99093.09;;;8.98;100.00
39341;BME280;25059;52.132;21.062;2023-03-25T22:46:42;99099.81;;;8.87;100.00
39341;BME280;25059;52.132;21.062;2023-03-25T22:49:36;99100.72;;;9.03;100.00
39341;BME280;25059;52.132;21.062;2023-03-25T22:55:18;99064.31;;;8.81;100.00
39341;BME280;25059;52.132;21.062;2023-03-25T22:58:11;99103.97;;;9.24;100.00
39341;BME280;25059;52.132;21.062;2023-03-25T23:01:51;99070.59;;;8.94;100.00
39341;BME280;25059;52.132;21.062;2023-03-25T23:07:26;99103.97;;;9.24;100.00
39341;BME280;25059;52.132;21.062;2023-03-25T23:10:20;99097.00;;;9.07;100.00
39341;BME280;25059;52.132;21.062;2023-03-25T23:13:08;99094.47;;;9.05;100.00
39341;BME280;25059;52.132;21.062;2023-03-25T23:15:58;99095.88;;;8.95;100.00
39341;BME280;25059;52.132;21.062;2023-03-25T23:18:49;99092.78;;;9.04;100.00